Time;durP1;ratioP1;P1;durP2;ratioP2;P2;SDS_P1;SDS_P2;PMS_P1;PMS_P2;Temp;Humidity;BMP_temperature;BMP_pressure;BME280_temperature;BME280_humidity;BME280_pressure;Samples;Min_cycle;Max_cycle;Signal;HPM_P1;HPM_P2
2023/10/14 00:08:50;;;;;;;8.57;3.47;;;;;;;19.54;42.31;98914.53;10399206;28;20677;-66
2023/10/14 00:13:53;;;;;;;5.13;3.30;;;;;;;19.75;41.86;98956.16;10510129;28;20942;-66
2023/10/14 00:18:59;;;;;;;5.50;3.53;;;;;;;20.28;41.28;98964.19;10513828;28;20250;-65
2023/10/14 00:24:06;;;;;;;5.47;3.42;;;;;;;20.39;40.94;98947.91;10474847;28;20227;-66
2023/10/14 00:34:23;;;;;;;8.25;3.58;;;;;;;20.47;41.88;98904.72;10507307;28;20230;-66
2023/10/14 00:39:30;;;;;;;12.40;4.30;;;;;;;20.02;42.80;98967.91;10515058;28;20235;-66
2023/10/14 00:44:33;;;;;;;6.28;3.80;;;;;;;20.15;43.22;98950.31;10502122;28;20234;-66
2023/10/14 00:49:38;;;;;;;8.43;4.22;;;;;;;20.44;43.21;98910.69;10493660;28;20585;-66
2023/10/14 00:59:50;;;;;;;5.60;4.43;;;;;;;19.86;44.06;98950.78;10520693;28;20233;-66
2023/10/14 01:04:54;;;;;;;10.05;4.18;;;;;;;20.37;43.76;98923.72;10485579;28;20756;-66
2023/10/14 01:09:55;;;;;;;4.95;4.13;;;;;;;20.36;44.02;98913.94;10512185;28;20237;-65
2023/10/14 01:15:10;;;;;;;8.35;4.45;;;;;;;20.25;43.72;98921.28;10505875;28;20235;-66
2023/10/14 01:25:19;;;;;;;13.43;4.78;;;;;;;19.74;44.33;98948.28;10502566;28;20253;-66
2023/10/14 01:30:25;;;;;;;10.13;4.03;;;;;;;20.04;43.95;98952.16;10508035;28;20895;-65
2023/10/14 01:40:50;;;;;;;10.15;4.13;;;;;;;20.32;43.45;98988.94;10512194;28;20231;-66
2023/10/14 01:50:57;;;;;;;9.30;3.95;;;;;;;20.33;43.95;98951.69;10510322;28;20234;-65
2023/10/14 01:56:01;;;;;;;7.75;4.20;;;;;;;19.88;45.01;98946.69;10505722;28;20371;-66
2023/10/14 02:06:25;;;;;;;7.43;4.20;;;;;;;20.41;43.91;98938.41;10507355;28;20608;-66
2023/10/14 02:11:33;;;;;;;9.48;4.55;;;;;;;20.10;44.59;98938.31;10511081;28;20515;-65
2023/10/14 02:16:43;;;;;;;10.63;4.55;;;;;;;20.36;43.63;98926.72;10487334;28;21061;-65
2023/10/14 02:21:48;;;;;;;10.48;4.10;;;;;;;19.89;44.84;98918.47;10508880;28;20241;-65
2023/10/14 02:26:50;;;;;;;8.50;4.30;;;;;;;20.45;43.72;98908.81;10503783;28;20238;-65
2023/10/14 02:31:51;;;;;;;12.18;4.00;;;;;;;19.83;44.33;98949.41;10505148;28;20695;-66
2023/10/14 02:36:53;;;;;;;11.30;4.28;;;;;;;20.12;44.22;98905.47;10503984;28;20577;-66
2023/10/14 02:47:08;;;;;;;9.95;4.28;;;;;;;20.02;44.05;98946.19;10501818;28;20235;-66
2023/10/14 02:52:12;;;;;;;8.30;4.82;;;;;;;19.64;44.90;98975.38;10507151;28;20740;-66
2023/10/14 03:02:25;;;;;;;9.30;4.10;;;;;;;20.12;45.50;98955.16;10509216;28;20897;-65
2023/10/14 03:07:33;;;;;;;9.10;4.82;;;;;;;19.53;47.02;99004.31;10503722;28;20230;-66
2023/10/14 03:12:38;;;;;;;7.50;2.90;;;;;;;15.29;60.85;98994.16;10500346;28;20226;-65
2023/10/14 03:17:44;;;;;;;8.60;2.78;;;;;;;15.42;59.78;98939.16;10483836;28;20716;-66
2023/10/14 03:22:46;;;;;;;7.50;3.05;;;;;;;16.84;58.09;98911.56;10500284;28;20239;-65
2023/10/14 03:27:47;;;;;;;5.28;2.65;;;;;;;15.61;60.23;98954.19;10507809;28;20361;-65
2023/10/14 03:32:49;;;;;;;4.40;2.70;;;;;;;16.42;60.07;98816.44;10502189;28;20222;-65
2023/10/14 03:37:58;;;;;;;6.63;2.78;;;;;;;16.43;58.73;98933.34;10507092;28;20230;-66
2023/10/14 03:43:08;;;;;;;6.47;3.00;;;;;;;17.52;56.52;98932.00;10482574;28;20348;-65
2023/10/14 03:48:10;;;;;;;7.22;3.15;;;;;;;15.68;60.50;98975.63;10489341;28;20411;-66
2023/10/14 03:53:12;;;;;;;9.18;3.00;;;;;;;16.85;57.89;98973.47;10511553;28;20463;-66
2023/10/14 03:58:14;;;;;;;7.73;2.77;;;;;;;16.92;58.31;98939.00;10517724;28;20728;-66
2023/10/14 04:03:33;;;;;;;4.30;2.80;;;;;;;17.10;58.08;98991.97;10510140;28;20345;-65
2023/10/14 04:08:49;;;;;;;3.97;2.80;;;;;;;16.66;58.44;99040.41;10514569;28;20241;-65
2023/10/14 04:14:14;;;;;;;4.43;3.40;;;;;;;16.53;59.43;98986.69;10510869;28;20233;-66
2023/10/14 04:19:24;;;;;;;5.03;3.10;;;;;;;16.48;58.95;99040.63;10511257;28;20859;-65
2023/10/14 04:24:46;;;;;;;3.03;2.40;;;;;;;16.49;59.16;99048.47;10505193;28;20230;-66
2023/10/14 04:35:08;;;;;;;3.50;2.20;;;;;;;16.28;59.10;99071.59;10493794;28;20292;-65
2023/10/14 04:40:35;;;;;;;7.40;2.60;;;;;;;16.12;59.63;99059.59;10495567;28;20323;-65
2023/10/14 04:45:32;;;;;;;4.40;2.43;;;;;;;16.15;58.93;99078.03;10489628;28;20242;-67
2023/10/14 04:50:38;;;;;;;5.30;2.60;;;;;;;16.19;58.67;99122.38;10509724;28;20279;-66
2023/10/14 04:55:44;;;;;;;3.43;2.40;;;;;;;16.31;59.08;99075.66;10506137;28;20231;-66
2023/10/14 05:00:46;;;;;;;5.40;2.53;;;;;;;16.03;58.94;99132.03;10496334;28;20943;-66
2023/10/14 05:05:55;;;;;;;4.57;2.30;;;;;;;15.60;59.68;99167.44;10509383;28;20628;-66
2023/10/14 05:11:00;;;;;;;3.50;2.30;;;;;;;16.05;59.15;99100.22;10513332;28;20237;-65
2023/10/14 05:16:21;;;;;;;9.27;2.10;;;;;;;16.12;58.65;99143.28;10486130;28;20227;-66
2023/10/14 05:21:35;;;;;;;3.07;2.23;;;;;;;15.96;58.62;99154.78;10506636;28;20250;-66
2023/10/14 05:26:48;;;;;;;3.63;2.13;;;;;;;16.44;57.96;99143.69;10504379;28;20600;-66
2023/10/14 05:31:50;;;;;;;3.73;2.20;;;;;;;16.78;57.64;99133.00;10510700;28;20229;-66
2023/10/14 05:36:55;;;;;;;3.80;2.10;;;;;;;16.87;56.45;99202.88;10501672;28;20222;-66
2023/10/14 05:42:03;;;;;;;3.63;1.70;;;;;;;16.73;56.83;99196.94;10508514;28;20234;-66
2023/10/14 05:47:05;;;;;;;3.70;2.15;;;;;;;16.50;57.01;99235.63;10484979;28;20612;-66
2023/10/14 05:52:08;;;;;;;3.87;2.07;;;;;;;16.62;56.51;99275.06;10506958;28;20240;-67
2023/10/14 05:57:10;;;;;;;6.03;2.33;;;;;;;17.18;55.37;99267.31;10502554;28;20311;-66
2023/10/14 06:02:15;;;;;;;4.13;1.80;;;;;;;17.18;55.52;99247.59;10508145;28;20235;-69
2023/10/14 06:07:18;;;;;;;5.20;2.10;;;;;;;16.66;56.13;99328.63;10500772;28;20258;-66
2023/10/14 06:12:20;;;;;;;4.68;1.50;;;;;;;16.54;56.28;99334.03;10506583;28;20724;-65
2023/10/14 06:17:21;;;;;;;3.22;1.60;;;;;;;16.19;57.15;99351.78;10504440;28;20309;-66
2023/10/14 06:22:24;;;;;;;3.03;1.60;;;;;;;17.15;55.40;99329.97;10504793;28;20632;-69
2023/10/14 06:27:26;;;;;;;5.43;1.60;;;;;;;17.31;55.44;99306.78;10485572;28;20226;-66
2023/10/14 06:32:29;;;;;;;1.77;1.30;;;;;;;17.52;54.88;99313.38;10484296;28;20238;-66
2023/10/14 06:37:31;;;;;;;2.47;1.30;;;;;;;16.56;56.54;99380.53;10490331;28;20254;-65
2023/10/14 06:42:32;;;;;;;9.63;1.53;;;;;;;17.62;54.40;99333.59;10504204;28;20234;-65
2023/10/14 06:47:34;;;;;;;2.42;1.52;;;;;;;16.87;55.19;99424.47;10505874;28;20227;-65
2023/10/14 06:52:36;;;;;;;4.45;1.50;;;;;;;17.03;54.91;99431.09;10502719;28;20235;-66
2023/10/14 06:57:38;;;;;;;3.00;1.30;;;;;;;17.16;54.49;99433.53;10509753;28;20230;-65
2023/10/14 07:02:40;;;;;;;2.60;1.50;;;;;;;17.09;55.74;99403.09;10506482;28;20982;-65
2023/10/14 07:07:42;;;;;;;1.40;1.13;;;;;;;17.66;54.56;99375.34;10510141;28;20337;-65
2023/10/14 07:12:44;;;;;;;2.37;1.30;;;;;;;16.23;57.94;99433.16;10509286;28;20353;-67
2023/10/14 07:17:48;;;;;;;5.53;1.83;;;;;;;16.94;57.40;99381.94;10508857;28;20221;-70
2023/10/14 07:22:50;;;;;;;4.40;1.67;;;;;;;16.17;59.20;99425.97;10512173;28;20234;-66
2023/10/14 07:27:52;;;;;;;2.30;1.90;;;;;;;16.57;59.73;99376.78;10515829;28;20314;-66
2023/10/14 07:32:55;;;;;;;4.27;1.83;;;;;;;15.75;62.43;99407.06;10513331;28;20843;-65
2023/10/14 07:37:58;;;;;;;3.20;1.43;;;;;;;15.78;63.12;99385.84;10496508;28;20232;-70
2023/10/14 07:43:05;;;;;;;5.10;1.90;;;;;;;16.07;62.05;99426.53;10513334;28;20241;-66
2023/10/14 07:48:10;;;;;;;2.63;1.20;;;;;;;15.33;61.18;99437.38;10515779;28;20747;-65
2023/10/14 07:53:15;;;;;;;3.23;1.17;;;;;;;15.52;60.71;99405.84;10511300;28;20333;-71
2023/10/14 07:58:20;;;;;;;1.30;1.20;;;;;;;15.97;58.73;99470.25;10493809;28;20223;-66
2023/10/14 08:03:26;;;;;;;1.77;1.30;;;;;;;15.85;59.77;99456.72;10510370;28;20257;-68
2023/10/14 08:08:31;;;;;;;3.80;1.23;;;;;;;15.30;60.21;99518.69;10519374;28;20244;-65
2023/10/14 08:13:33;;;;;;;2.83;1.93;;;;;;;16.35;59.98;99449.44;10509034;28;20310;-67
2023/10/14 08:18:36;;;;;;;1.17;1.10;;;;;;;15.49;61.05;99551.94;10519191;28;20206;-67
2023/10/14 08:23:37;;;;;;;1.50;1.20;;;;;;;17.08;57.66;99558.25;10489770;28;20349;-67
2023/10/14 08:28:39;;;;;;;1.90;1.50;;;;;;;18.29;56.02;99517.06;10492717;28;20233;-67
2023/10/14 08:33:40;;;;;;;2.77;1.80;;;;;;;17.61;57.76;99540.25;10506300;28;20227;-68
2023/10/14 08:38:48;;;;;;;2.13;1.40;;;;;;;18.96;54.53;99557.00;10515475;28;20959;-67
2023/10/14 08:43:56;;;;;;;1.60;1.50;;;;;;;17.80;57.75;99559.88;10505943;28;20231;-67
2023/10/14 08:48:58;;;;;;;1.80;1.30;;;;;;;17.94;57.07;99582.13;10513658;28;20376;-68
2023/10/14 08:54:06;;;;;;;2.50;1.60;;;;;;;16.94;58.76;99626.00;10508016;28;20238;-67
2023/10/14 08:59:08;;;;;;;1.60;1.47;;;;;;;16.58;59.88;99592.63;10514518;28;20722;-68
2023/10/14 09:04:11;;;;;;;2.13;1.63;;;;;;;17.11;58.24;99593.75;10503518;28;20254;-68
2023/10/14 09:09:17;;;;;;;1.50;1.40;;;;;;;17.65;57.21;99584.75;10515474;28;20824;-67
2023/10/14 09:14:19;;;;;;;3.40;2.23;;;;;;;17.67;57.03;99588.84;10507266;28;20307;-67
2023/10/14 09:19:23;;;;;;;1.90;1.73;;;;;;;17.43;57.94;99603.41;10514073;28;20250;-68
2023/10/14 09:24:26;;;;;;;2.63;1.50;;;;;;;17.75;57.25;99584.97;10488567;28;20235;-68
2023/10/14 09:29:28;;;;;;;2.80;1.40;;;;;;;17.04;58.72;99609.25;10493747;28;20314;-68
2023/10/14 09:34:30;;;;;;;1.98;1.77;;;;;;;17.93;56.32;99546.09;10502672;28;20321;-67
2023/10/14 09:39:34;;;;;;;2.50;1.50;;;;;;;17.88;56.89;99554.94;10513910;28;21692;-70
2023/10/14 09:44:42;;;;;;;1.30;1.20;;;;;;;17.99;55.91;99565.97;10502884;28;20345;-66
2023/10/14 09:49:46;;;;;;;2.03;1.30;;;;;;;17.73;56.36;99573.53;10510946;28;20219;-67
2023/10/14 09:54:51;;;;;;;1.13;1.03;;;;;;;16.73;58.04;99638.13;10505021;28;20238;-68
2023/10/14 09:59:53;;;;;;;2.07;1.30;;;;;;;17.25;56.66;99670.03;10512558;28;20237;-68
2023/10/14 10:04:56;;;;;;;1.70;1.60;;;;;;;18.21;55.84;99571.56;10503962;28;20234;-68
2023/10/14 10:10:13;;;;;;;2.20;1.23;;;;;;;16.86;58.24;99634.41;10500480;28;20328;-68
2023/10/14 10:15:19;;;;;;;5.63;1.80;;;;;;;17.77;56.20;99595.56;10504023;28;20234;-68
2023/10/14 10:20:29;;;;;;;1.23;1.03;;;;;;;16.45;58.00;99638.72;10507301;28;20744;-69
2023/10/14 10:25:37;;;;;;;1.30;1.20;;;;;;;16.78;55.77;99688.78;10503806;28;20231;-69
2023/10/14 10:30:47;;;;;;;1.07;1.07;;;;;;;16.34;55.58;99661.06;10509618;28;20724;-68
2023/10/14 10:35:59;;;;;;;1.43;1.40;;;;;;;17.19;53.19;99673.66;10504171;28;20230;-69
2023/10/14 10:41:25;;;;;;;0.90;0.90;;;;;;;16.42;53.64;99685.06;10491145;28;20222;-71
2023/10/14 10:46:50;;;;;;;2.17;1.20;;;;;;;16.20;54.31;99687.38;10507017;28;20226;-70
2023/10/14 10:52:07;;;;;;;1.20;1.20;;;;;;;16.30;55.09;99641.81;10509998;28;20226;-68
2023/10/14 10:57:13;;;;;;;1.33;1.33;;;;;;;15.81;55.53;99643.56;10505541;28;20226;-70
2023/10/14 11:06:13;;;;;;;4.83;1.53;;;;;;;15.52;55.56;99649.38;10497631;27;20309;-68
2023/10/14 11:11:15;;;;;;;1.73;1.53;;;;;;;14.78;57.26;99630.19;10414432;28;20256;-67
2023/10/14 11:16:17;;;;;;;1.83;1.47;;;;;;;14.34;56.59;99647.16;10403371;28;20310;-67
2023/10/14 11:21:19;;;;;;;2.47;1.70;;;;;;;15.27;52.61;99619.72;10402334;28;20569;-68
2023/10/14 11:26:20;;;;;;;1.77;1.67;;;;;;;15.28;52.56;99640.22;10448412;28;20700;-69
2023/10/14 11:31:24;;;;;;;1.70;1.60;;;;;;;15.30;51.42;99685.84;10484496;28;20234;-71
2023/10/14 11:36:26;;;;;;;1.73;1.63;;;;;;;15.83;50.94;99671.94;10484333;28;20239;-67
2023/10/14 11:41:30;;;;;;;1.60;1.50;;;;;;;14.05;51.50;99781.09;10489713;28;20313;-68
2023/10/14 11:46:38;;;;;;;2.97;2.00;;;;;;;16.70;48.55;99662.06;10486358;28;20642;-67
2023/10/14 11:51:47;;;;;;;1.60;1.50;;;;;;;15.96;49.90;99716.03;10471973;28;20222;-67
2023/10/14 11:56:49;;;;;;;1.53;1.43;;;;;;;15.16;49.25;99773.22;10481739;28;20230;-70
2023/10/14 12:01:51;;;;;;;2.90;1.60;;;;;;;15.29;49.47;99728.16;10488910;28;20329;-69
2023/10/14 12:06:52;;;;;;;1.63;1.53;;;;;;;15.52;48.64;99768.03;10486319;28;20234;-67
2023/10/14 12:11:55;;;;;;;2.93;1.80;;;;;;;15.60;48.76;99745.38;10487306;28;20215;-68
2023/10/14 12:16:56;;;;;;;2.90;1.80;;;;;;;15.62;49.26;99769.44;10459270;28;20235;-68
2023/10/14 12:21:58;;;;;;;3.90;1.63;;;;;;;15.54;49.26;99738.16;10456579;28;20238;-69
2023/10/14 12:27:01;;;;;;;2.77;1.70;;;;;;;16.52;47.56;99714.25;10458517;28;20238;-71
2023/10/14 12:32:12;;;;;;;3.20;1.80;;;;;;;15.44;49.01;99751.28;10457562;28;20223;-67
2023/10/14 12:37:18;;;;;;;2.57;1.67;;;;;;;15.27;48.07;99799.50;10457452;28;20238;-66
2023/10/14 12:42:23;;;;;;;3.03;1.90;;;;;;;14.93;48.57;99813.13;10458223;28;20232;-71
2023/10/14 12:47:27;;;;;;;3.83;2.00;;;;;;;16.61;47.32;99767.72;10455582;28;20267;-67
2023/10/14 12:52:29;;;;;;;4.23;2.13;;;;;;;16.28;47.67;99697.06;10455582;28;20231;-67
2023/10/14 12:57:31;;;;;;;4.37;2.40;;;;;;;14.56;50.26;99790.38;10453270;28;20240;-67
2023/10/14 13:02:34;;;;;;;3.03;1.80;;;;;;;14.17;51.83;99732.91;10454685;28;20235;-68
2023/10/14 13:07:36;;;;;;;2.90;1.70;;;;;;;15.41;49.29;99720.19;10436745;28;20247;-67
2023/10/14 13:12:39;;;;;;;4.13;1.90;;;;;;;16.07;44.39;99753.09;10455034;28;20230;-67
2023/10/14 13:17:40;;;;;;;5.37;2.40;;;;;;;14.43;43.02;99811.97;10437216;28;21196;-68
2023/10/14 13:22:42;;;;;;;3.53;2.00;;;;;;;14.28;43.43;99812.19;10448718;28;20246;-67
2023/10/14 13:27:44;;;;;;;4.17;2.10;;;;;;;14.29;41.76;99806.59;10446423;28;20362;-69
2023/10/14 13:32:47;;;;;;;4.80;2.13;;;;;;;14.43;41.62;99882.78;10453332;28;20235;-67
2023/10/14 13:37:50;;;;;;;3.30;2.07;;;;;;;15.04;41.61;99749.63;10453790;28;20274;-67
2023/10/14 13:42:53;;;;;;;3.77;1.97;;;;;;;14.98;40.52;99834.00;10434855;28;20231;-73
2023/10/14 13:47:55;;;;;;;6.13;2.67;;;;;;;15.27;40.92;99803.03;10454047;28;20223;-66
2023/10/14 13:52:58;;;;;;;3.47;2.37;;;;;;;14.66;41.19;99846.50;10451385;28;21132;-67
2023/10/14 13:57:59;;;;;;;5.97;2.20;;;;;;;15.99;40.97;99764.16;10454900;28;20323;-73
2023/10/14 14:03:11;;;;;;;3.20;2.00;;;;;;;14.70;40.99;99867.44;10453455;28;20325;-67
2023/10/14 14:08:13;;;;;;;4.53;2.60;;;;;;;15.26;40.62;99876.84;10452347;28;20231;-67
2023/10/14 14:13:18;;;;;;;4.37;1.90;;;;;;;15.34;40.79;99856.91;10455803;28;20264;-67
2023/10/14 14:18:20;;;;;;;3.20;2.67;;;;;;;14.79;40.71;99841.09;10454105;28;20962;-66
2023/10/14 14:23:21;;;;;;;4.53;1.97;;;;;;;14.13;40.96;99934.31;10437176;28;20236;-65
2023/10/14 14:28:24;;;;;;;5.77;2.20;;;;;;;14.12;41.26;99905.75;10450558;28;20227;-67
2023/10/14 14:33:29;;;;;;;3.43;1.90;;;;;;;14.62;39.59;99921.50;10450846;28;20228;-70
2023/10/14 14:38:34;;;;;;;3.33;2.00;;;;;;;15.61;38.64;99881.09;10434868;28;20255;-71
2023/10/14 14:43:37;;;;;;;3.13;1.90;;;;;;;14.51;39.62;99933.75;10450418;28;20239;-67
2023/10/14 14:48:39;;;;;;;4.53;1.90;;;;;;;15.05;39.81;99901.38;10435509;28;20235;-67
2023/10/14 14:53:42;;;;;;;2.87;1.93;;;;;;;14.53;39.94;100015.13;10432904;28;20232;-67
2023/10/14 14:58:44;;;;;;;3.90;1.60;;;;;;;13.40;39.55;99969.00;10452462;28;20209;-68
2023/10/14 15:03:46;;;;;;;4.20;2.03;;;;;;;15.21;38.96;99827.31;10448772;28;20236;-70
2023/10/14 15:08:50;;;;;;;4.97;1.80;;;;;;;14.78;38.83;99928.34;10451612;28;20215;-68
2023/10/14 15:13:52;;;;;;;3.87;1.90;;;;;;;14.29;39.27;99943.88;10446751;28;20250;-68
2023/10/14 15:18:54;;;;;;;5.20;2.13;;;;;;;14.03;40.22;99923.09;10434631;28;20231;-66
2023/10/14 15:23:56;;;;;;;3.23;1.90;;;;;;;14.40;39.99;99916.31;10450626;28;20677;-66
2023/10/14 15:28:57;;;;;;;3.80;1.57;;;;;;;13.44;41.54;99897.66;10446771;28;20353;-66
2023/10/14 15:33:59;;;;;;;4.63;2.30;;;;;;;15.11;39.75;99847.44;10450919;28;20614;-68
2023/10/14 15:39:01;;;;;;;2.00;1.70;;;;;;;14.12;40.61;99932.66;10419430;28;20232;-65
2023/10/14 15:44:03;;;;;;;2.90;2.00;;;;;;;13.38;41.46;99925.34;10452592;28;20231;-69
2023/10/14 15:49:09;;;;;;;2.77;1.70;;;;;;;13.14;41.40;99911.34;10457391;28;20223;-69
2023/10/14 15:54:13;;;;;;;3.77;1.83;;;;;;;14.14;40.25;99921.72;10444802;28;20277;-69
2023/10/14 15:59:18;;;;;;;3.83;1.73;;;;;;;14.43;40.30;99841.59;10461896;28;20234;-63
2023/10/14 16:04:20;;;;;;;2.63;2.03;;;;;;;14.33;41.01;99864.34;10460007;28;20310;-64
2023/10/14 16:09:26;;;;;;;4.40;1.90;;;;;;;14.20;40.82;99919.00;10459595;28;20275;-65
2023/10/14 16:14:28;;;;;;;3.87;2.20;;;;;;;13.28;41.88;99988.34;10460859;28;20240;-64
2023/10/14 16:19:30;;;;;;;6.40;2.10;;;;;;;14.28;40.45;99907.22;10462637;28;20312;-65
2023/10/14 16:24:32;;;;;;;2.63;1.70;;;;;;;14.39;40.36;99924.59;10442115;28;20293;-65
2023/10/14 16:29:33;;;;;;;3.50;2.07;;;;;;;14.52;40.27;99846.53;10451680;28;20691;-64
2023/10/14 16:34:35;;;;;;;4.23;2.60;;;;;;;13.97;40.70;99940.88;10463164;28;20676;-65
2023/10/14 16:39:37;;;;;;;4.83;2.23;;;;;;;12.79;42.11;100005.34;10461110;28;20302;-64
2023/10/14 16:44:40;;;;;;;3.47;2.27;;;;;;;13.73;41.30;99898.38;10441182;28;20583;-68
2023/10/14 16:49:44;;;;;;;2.77;1.80;;;;;;;14.91;40.23;99900.56;10460614;28;20242;-69
2023/10/14 16:54:46;;;;;;;4.47;3.07;;;;;;;14.56;40.55;99976.19;10454185;28;20235;-65
2023/10/14 16:59:47;;;;;;;2.40;2.10;;;;;;;13.82;41.38;100029.81;10463770;28;20227;-66
2023/10/14 17:04:49;;;;;;;4.97;2.47;;;;;;;15.44;39.41;99940.03;10460682;28;20255;-66
2023/10/14 17:09:53;;;;;;;4.50;2.60;;;;;;;14.99;40.22;99974.97;10457315;28;20321;-65
2023/10/14 17:14:55;;;;;;;5.43;2.67;;;;;;;15.17;40.49;99917.72;10441687;28;20239;-65
2023/10/14 17:19:57;;;;;;;6.87;3.40;;;;;;;14.77;40.69;99983.25;10458114;28;20830;-65
2023/10/14 17:24:59;;;;;;;7.57;3.23;;;;;;;15.03;40.37;100020.16;10456027;28;20248;-67
2023/10/14 17:30:02;;;;;;;4.37;3.03;;;;;;;14.73;41.09;99972.06;10457850;28;20777;-67
2023/10/14 17:35:14;;;;;;;3.67;2.17;;;;;;;15.80;39.51;99930.56;10424545;28;20234;-67
2023/10/14 17:40:17;;;;;;;4.50;2.13;;;;;;;15.23;39.97;100008.53;10459035;28;20401;-66
2023/10/14 17:45:22;;;;;;;3.80;1.93;;;;;;;14.53;41.19;100012.44;10455827;28;20343;-67
2023/10/14 17:50:25;;;;;;;3.47;2.30;;;;;;;15.77;40.11;99922.91;10455745;28;20398;-67
2023/10/14 17:55:28;;;;;;;4.43;2.70;;;;;;;14.56;40.94;100036.28;10453514;28;20243;-68
2023/10/14 18:00:31;;;;;;;4.17;2.50;;;;;;;14.64;41.14;100005.59;10441932;28;20994;-66
2023/10/14 18:05:37;;;;;;;4.70;3.00;;;;;;;14.42;41.04;100018.41;10457404;28;20234;-68
2023/10/14 18:10:39;;;;;;;3.33;2.23;;;;;;;14.61;40.93;99954.88;10455066;28;20251;-70
2023/10/14 18:15:43;;;;;;;3.83;2.30;;;;;;;14.71;41.00;99925.66;10455780;28;20223;-69
2023/10/14 18:20:46;;;;;;;5.37;1.70;;;;;;;14.62;40.83;99961.09;10452183;28;20235;-68
2023/10/14 18:25:54;;;;;;;3.70;1.80;;;;;;;14.18;40.89;100097.88;10449773;28;20358;-66
2023/10/14 18:30:56;;;;;;;5.00;3.00;;;;;;;14.22;41.17;100007.59;10452130;28;20259;-69
2023/10/14 18:36:06;;;;;;;5.10;2.40;;;;;;;13.92;41.69;100017.81;10454059;28;20238;-69
2023/10/14 18:41:16;;;;;;;6.10;1.80;;;;;;;14.55;41.21;99921.50;10457155;28;20234;-71
2023/10/14 18:46:18;;;;;;;3.40;1.70;;;;;;;13.19;42.90;100050.47;10452987;28;20234;-71
2023/10/14 18:51:22;;;;;;;10.70;2.20;;;;;;;13.20;43.24;99966.97;10455914;28;20320;-70
2023/10/14 18:56:25;;;;;;;4.70;1.90;;;;;;;13.96;42.16;99958.03;10434785;28;20739;-69
2023/10/14 19:01:27;;;;;;;4.63;2.10;;;;;;;13.17;43.31;100021.09;10453248;28;20250;-70
2023/10/14 19:06:29;;;;;;;6.67;2.13;;;;;;;13.64;42.82;99943.47;10455582;28;20292;-66
2023/10/14 19:11:31;;;;;;;4.37;2.00;;;;;;;13.18;43.30;99976.28;10455718;28;20238;-66
2023/10/14 19:16:33;;;;;;;3.03;2.30;;;;;;;13.04;43.47;99932.38;10439643;28;20327;-68
2023/10/14 19:21:36;;;;;;;3.33;1.80;;;;;;;13.97;42.27;99934.66;10456591;28;20647;-68
2023/10/14 19:26:38;;;;;;;5.33;2.50;;;;;;;12.54;44.51;99940.47;10459076;28;20223;-65
2023/10/14 19:31:39;;;;;;;4.17;2.30;;;;;;;13.33;42.92;99986.94;10464887;28;20317;-66
2023/10/14 19:36:41;;;;;;;6.73;2.07;;;;;;;13.88;42.00;99936.69;10464335;28;20230;-66
2023/10/14 19:41:44;;;;;;;3.57;2.00;;;;;;;13.34;43.65;99932.16;10464861;28;20259;-71
2023/10/14 19:46:46;;;;;;;4.40;2.40;;;;;;;12.90;43.87;99961.81;10467325;28;20342;-70
2023/10/14 19:51:50;;;;;;;3.57;2.47;;;;;;;12.66;44.07;99933.56;10463465;28;20621;-69
2023/10/14 19:56:51;;;;;;;3.63;2.30;;;;;;;11.92;45.21;100041.13;10447899;28;20238;-68
2023/10/14 20:01:55;;;;;;;5.07;2.13;;;;;;;11.96;46.15;99954.75;10464930;28;20262;-70
2023/10/14 20:06:56;;;;;;;4.83;2.50;;;;;;;11.75;45.95;99994.91;10460966;28;20278;-71
2023/10/14 20:11:58;;;;;;;3.00;2.13;;;;;;;12.49;45.21;99927.63;10462475;28;20234;-72
2023/10/14 20:17:00;;;;;;;5.10;2.07;;;;;;;12.51;45.12;99975.75;10459145;28;20231;-70
2023/10/14 20:22:02;;;;;;;4.63;2.70;;;;;;;13.18;43.56;99960.16;10463403;28;20230;-71
2023/10/14 20:27:03;;;;;;;4.23;2.50;;;;;;;13.28;43.39;99982.97;10459189;28;21124;-69
2023/10/14 20:32:05;;;;;;;3.33;1.97;;;;;;;13.19;43.38;99984.13;10447401;28;20231;-71
2023/10/14 20:37:12;;;;;;;7.30;2.50;;;;;;;11.40;45.69;100137.47;10455872;28;20319;-66
2023/10/14 20:42:13;;;;;;;2.97;2.00;;;;;;;12.00;45.52;99977.47;10464683;28;20230;-70
2023/10/14 20:47:18;;;;;;;3.53;2.10;;;;;;;12.21;45.33;99988.44;10462019;28;20235;-74
2023/10/14 20:52:20;;;;;;;3.43;2.23;;;;;;;12.63;45.11;99954.59;10459231;28;20818;-67
2023/10/14 20:57:21;;;;;;;4.33;2.30;;;;;;;11.96;46.20;99936.00;10462650;28;20603;-73
2023/10/14 21:02:23;;;;;;;5.17;2.80;;;;;;;10.76;47.35;100091.47;10459789;28;20700;-72
2023/10/14 21:07:25;;;;;;;4.67;2.60;;;;;;;11.21;47.02;100034.34;10460619;28;20730;-71
2023/10/14 21:12:27;;;;;;;7.07;2.60;;;;;;;10.77;47.42;100043.09;10459930;28;20726;-67
2023/10/14 21:17:34;;;;;;;4.37;2.33;;;;;;;12.68;44.44;99903.81;10462323;28;20949;-67
2023/10/14 21:22:36;;;;;;;4.97;1.93;;;;;;;12.09;45.44;99958.59;10456531;28;20270;-66
2023/10/14 21:27:42;;;;;;;2.17;1.90;;;;;;;13.05;44.19;99886.50;10457463;28;20243;-65
2023/10/14 21:32:49;;;;;;;2.93;2.23;;;;;;;12.41;45.06;99906.25;10460917;28;20238;-70
2023/10/14 21:37:51;;;;;;;4.67;2.47;;;;;;;12.91;44.13;99963.50;10457518;28;20232;-65
2023/10/14 21:42:53;;;;;;;5.67;2.87;;;;;;;11.78;45.66;100051.69;10458562;28;20231;-65
2023/10/14 21:47:55;;;;;;;3.30;2.40;;;;;;;12.61;44.83;99927.13;10457960;28;20220;-70
2023/10/14 21:53:01;;;;;;;5.13;2.70;;;;;;;13.03;44.27;99890.44;10456661;28;20230;-65
2023/10/14 21:58:07;;;;;;;1.80;1.70;;;;;;;11.94;45.87;99970.19;10461615;28;20235;-65
2023/10/14 22:03:12;;;;;;;3.33;2.13;;;;;;;12.52;44.80;99985.47;10457002;28;20239;-64
2023/10/14 22:08:18;;;;;;;7.33;2.07;;;;;;;12.27;44.97;100023.38;10457828;28;20234;-67
2023/10/14 22:13:21;;;;;;;4.07;2.23;;;;;;;12.26;45.34;99960.00;10455988;28;20733;-65
2023/10/14 22:18:26;;;;;;;5.30;2.30;;;;;;;12.90;43.75;99977.94;10457468;28;20235;-64
2023/10/14 22:23:27;;;;;;;6.23;2.50;;;;;;;12.49;44.28;100034.19;10442190;28;20309;-65
2023/10/14 22:28:29;;;;;;;3.07;2.00;;;;;;;11.99;45.74;99999.13;10457934;28;20259;-64
2023/10/14 22:33:35;;;;;;;4.47;2.20;;;;;;;12.55;44.59;99948.34;10458504;28;20251;-65
2023/10/14 22:38:37;;;;;;;4.37;2.30;;;;;;;11.65;45.91;100016.66;10453835;28;20362;-65
2023/10/14 22:43:42;;;;;;;4.57;2.20;;;;;;;12.11;45.74;99938.59;10439794;28;20308;-66
2023/10/14 22:48:44;;;;;;;5.27;2.20;;;;;;;11.60;45.91;100059.22;10444399;28;20972;-64
2023/10/14 22:53:45;;;;;;;4.37;1.80;;;;;;;12.42;45.23;99921.34;10456651;28;20232;-65
2023/10/14 22:58:48;;;;;;;5.03;2.17;;;;;;;12.24;45.21;99974.66;10458601;28;20307;-65
2023/10/14 23:03:51;;;;;;;5.60;2.30;;;;;;;12.13;45.28;100032.28;10454582;28;20235;-65
2023/10/14 23:08:53;;;;;;;2.73;2.07;;;;;;;12.02;45.93;99979.97;10450283;28;20312;-65
2023/10/14 23:13:54;;;;;;;3.60;2.10;;;;;;;11.81;45.85;100045.09;10452969;28;20231;-64
2023/10/14 23:18:56;;;;;;;4.13;2.03;;;;;;;12.51;45.06;99955.09;10455611;28;20769;-65
2023/10/14 23:23:58;;;;;;;5.07;2.23;;;;;;;11.72;45.77;100000.66;10454613;28;20300;-64
2023/10/14 23:28:59;;;;;;;4.80;2.40;;;;;;;12.70;45.51;99861.50;10457303;28;20230;-65
2023/10/14 23:34:01;;;;;;;2.90;1.90;;;;;;;12.31;45.73;99929.91;10453802;28;20241;-67
2023/10/14 23:39:03;;;;;;;2.83;1.90;;;;;;;12.74;44.98;99922.66;10451883;28;20341;-65
2023/10/14 23:44:05;;;;;;;3.47;1.90;;;;;;;12.60;45.27;99947.75;10455207;28;20235;-67
2023/10/14 23:49:08;;;;;;;3.93;2.70;;;;;;;13.01;45.14;99930.91;10456184;28;20277;-65
2023/10/14 23:54:12;;;;;;;2.90;2.30;;;;;;;11.85;46.19;100037.53;10437945;28;20347;-66
2023/10/14 23:59:15;;;;;;;5.57;1.97;;;;;;;13.04;45.10;99921.63;10456879;28;20231;-65
